Time;durP1;ratioP1;P1;durP2;ratioP2;P2;SDS_P1;SDS_P2;PMS_P1;PMS_P2;Temp;Humidity;BMP_temperature;BMP_pressure;BME280_temperature;BME280_humidity;BME280_pressure;Samples;Min_cycle;Max_cycle;Signal;HPM_P1;HPM_P2
2023/03/13 18:47:39;;;;;;;;;;;;;;;14.60;63.67;96215.69;6205052;22;20708;-61
2023/03/13 18:50:10;;;;;;;;;;;;;;;14.55;63.79;96209.31;6185936;23;19948;-61
2023/03/13 18:52:35;;;;;;;;;;;;;;;14.52;63.67;96204.38;6187273;23;19914;-62
2023/03/13 18:55:00;;;;;;;;;;;;;;;14.48;63.83;96199.44;6212831;23;19991;-65
2023/03/13 18:57:25;;;;;;;;;;;;;;;14.43;64.48;96185.97;6213758;23;19912;-62
2023/03/13 18:59:51;;;;;;;;;;;;;;;14.41;64.41;96187.13;6212149;23;19919;-62
2023/03/13 19:02:16;;;;;;;;;;;;;;;14.38;64.35;96184.84;6211229;23;19915;-61
2023/03/13 19:04:41;;;;;;;;;;;;;;;14.35;64.39;96178.13;6213074;23;20005;-62
2023/03/13 19:07:14;;;;;;;;;;;;;;;14.32;64.48;96161.84;6212796;23;19908;-63
2023/03/13 19:09:39;;;;;;;;;;;;;;;14.29;64.51;96146.38;6184774;23;19908;-61
2023/03/13 19:12:04;;;;;;;;;;;;;;;14.24;64.65;96142.44;6187233;23;20294;-63
2023/03/13 19:14:29;;;;;;;;;;;;;;;14.19;64.84;96131.63;6213315;23;20287;-63
2023/03/13 19:16:56;;;;;;;;;;;;;;;14.22;64.74;96363.28;6212981;23;19935;-65
2023/03/13 19:19:21;;;;;;;;;;;;;;;14.33;63.28;96319.88;6182933;23;19908;-64
2023/03/13 19:21:47;;;;;;;;;;;;;;;14.17;63.55;96286.53;6186057;23;19930;-64
2023/03/13 19:24:12;;;;;;;;;;;;;;;14.09;63.78;96288.41;6212248;23;19912;-64
2023/03/13 19:26:41;;;;;;;;;;;;;;;14.10;63.72;96279.50;6187443;23;19911;-63
2023/03/13 19:29:13;;;;;;;;;;;;;;;14.31;62.75;96300.78;6186911;23;20262;-64
2023/03/13 19:31:38;;;;;;;;;;;;;;;14.28;64.24;96319.59;6187528;23;20287;-63
2023/03/13 19:34:04;;;;;;;;;;;;;;;14.23;64.81;96301.66;6186466;23;20495;-63
2023/03/13 19:36:31;;;;;;;;;;;;;;;13.96;66.16;96297.69;6212543;23;20332;-63
2023/03/13 19:38:56;;;;;;;;;;;;;;;13.72;67.67;96361.03;6212954;23;20283;-62
2023/03/13 19:41:21;;;;;;;;;;;;;;;13.62;68.69;96418.34;6213070;23;19915;-62
2023/03/13 19:43:46;;;;;;;;;;;;;;;13.30;70.25;96393.72;6213661;23;19907;-63
2023/03/13 19:46:18;;;;;;;;;;;;;;;13.07;71.88;96296.13;6185619;23;19916;-61
2023/03/13 19:48:43;;;;;;;;;;;;;;;12.93;73.38;96281.84;6213422;23;19922;-62
2023/03/13 19:51:08;;;;;;;;;;;;;;;12.78;75.86;96294.03;6185926;23;19939;-64
2023/03/13 19:53:33;;;;;;;;;;;;;;;12.75;76.29;96304.88;6187003;23;19915;-64
2023/03/13 19:55:59;;;;;;;;;;;;;;;12.56;77.82;96319.19;6186969;23;20310;-65
2023/03/13 19:58:24;;;;;;;;;;;;;;;12.55;76.72;96307.84;6213713;23;19908;-64
2023/03/13 20:00:49;;;;;;;;;;;;;;;12.50;77.76;96296.19;6186396;23;19918;-63
2023/03/13 20:03:14;;;;;;;;;;;;;;;12.53;78.09;96285.34;6213443;23;20294;-63
2023/03/13 20:05:40;;;;;;;;;;;;;;;12.46;78.86;96264.13;6212321;23;20200;-63
2023/03/13 20:08:05;;;;;;;;;;;;;;;12.43;79.08;96288.13;6210215;23;19908;-63
2023/03/13 20:10:30;;;;;;;;;;;;;;;12.39;79.37;96347.28;6209671;23;19912;-63
2023/03/13 20:12:56;;;;;;;;;;;;;;;12.35;79.76;96435.31;6211769;23;19908;-63
2023/03/13 20:15:21;;;;;;;;;;;;;;;12.20;80.50;96476.34;6213648;23;19991;-65
2023/03/13 20:17:46;;;;;;;;;;;;;;;12.09;82.19;96536.06;6213123;23;19912;-60
2023/03/13 20:20:12;;;;;;;;;;;;;;;12.06;83.20;96553.94;6213322;23;20070;-61
2023/03/13 20:22:37;;;;;;;;;;;;;;;12.00;85.22;96576.41;6212847;23;19908;-60
2023/03/13 20:25:03;;;;;;;;;;;;;;;11.94;85.04;96577.03;6212255;23;19916;-62
2023/03/13 20:27:28;;;;;;;;;;;;;;;11.78;85.29;96516.47;6213508;23;19914;-61
2023/03/13 20:29:53;;;;;;;;;;;;;;;11.67;86.68;96451.06;6213661;23;19908;-62
2023/03/13 20:32:19;;;;;;;;;;;;;;;11.65;87.90;96428.38;6213965;23;20394;-62
2023/03/13 20:34:44;;;;;;;;;;;;;;;11.70;88.38;96421.84;6187955;23;20247;-62
2023/03/13 20:37:09;;;;;;;;;;;;;;;11.70;89.50;96450.72;6213618;23;19994;-63
2023/03/13 20:39:34;;;;;;;;;;;;;;;11.72;89.21;96417.28;6213939;23;19931;-63
2023/03/13 20:42:01;;;;;;;;;;;;;;;11.76;88.98;96371.31;6214738;23;19908;-63
2023/03/13 20:44:26;;;;;;;;;;;;;;;11.90;83.83;96307.72;6187061;23;19912;-61
2023/03/13 20:46:51;;;;;;;;;;;;;;;13.76;71.02;96252.50;6210950;23;19931;-62
2023/03/13 20:49:16;;;;;;;;;;;;;;;14.62;69.69;96277.00;6210699;23;19962;-61
2023/03/13 20:51:42;;;;;;;;;;;;;;;15.31;66.87;96287.44;6214863;23;19920;-61
2023/03/13 20:54:07;;;;;;;;;;;;;;;14.87;71.49;96329.59;6187463;23;19915;-66
2023/03/13 20:56:32;;;;;;;;;;;;;;;13.88;76.34;96379.41;6186612;23;19919;-65
2023/03/13 20:58:57;;;;;;;;;;;;;;;13.22;79.47;96414.75;6214650;23;19907;-65
